Terminal Aerodrome Forecast
Issued by NWS Cleveland, OH

Home | Current Version | Previous Version | Text Only | Print | Product List | Glossary Off
Versions: 1 2 3 4 5 6 7 8 9 10 11 12 13 14 15 16

000
FTUS41 KCLE 191100
TAFYNG
TAF
KYNG 191120Z 1912/2012 30010KT P6SM SKC
     FM191800 29012KT P6SM OVC040
     FM200300 29005KT P6SM OVC040
     FM200900 30004KT P6SM SCT250=

USA.gov is the U.S. government's official web portal to all federal, state and local government web resources and services.